OCN2210 EHRD-EHRD
Flight info
| Callsign | OCN2210 |
|---|---|
| Flight time | 0h 11m |
| Altitude | |
| Route | LOCAL IFR |
| Aircraft | A320 |
Departure
| Time | 2026-05-06 14:15 |
|---|---|
| Airport | Rotterdam The Hague Airport (EHRD) |
Arrival
| Time | 2026-05-06 14:26 |
|---|---|
| Airport | Rotterdam The Hague Airport (EHRD) |
| Time | Latitude | Longitude | Altitude | Speed | Heading |
|---|---|---|---|---|---|
| 2026-05-06 13:56 | 51.95145 | 4.43290 | 1 ft | 0 kts | 327° |
| 2026-05-06 14:11 | 51.95146 | 4.43289 | 1 ft | 0 kts | 328° |
| 2026-05-06 14:11 | 51.95166 | 4.43240 | 1 ft | 7 kts | 271° |
| 2026-05-06 14:11 | 51.95146 | 4.43144 | 3 ft | 10 kts | 246° |
| 2026-05-06 14:11 | 51.95116 | 4.43044 | 1 ft | 7 kts | 244° |
| 2026-05-06 14:12 | 51.95115 | 4.43039 | 1 ft | 0 kts | 244° |
| 2026-05-06 14:12 | 51.95114 | 4.43036 | 1 ft | 0 kts | 244° |
| 2026-05-06 14:12 | 51.95113 | 4.43034 | 1 ft | 0 kts | 244° |
| 2026-05-06 14:13 | 51.95113 | 4.43033 | 1 ft | 0 kts | 244° |
| 2026-05-06 14:13 | 51.95118 | 4.42955 | 1 ft | 17 kts | 298° |
| 2026-05-06 14:13 | 51.95187 | 4.42865 | 2 ft | 12 kts | 329° |
| 2026-05-06 14:13 | 51.95257 | 4.42921 | 2 ft | 14 kts | 59° |
| 2026-05-06 14:14 | 51.95285 | 4.43012 | 2 ft | 2 kts | 56° |
| 2026-05-06 14:14 | 51.95305 | 4.43061 | 2 ft | 8 kts | 56° |
| 2026-05-06 14:14 | 51.95315 | 4.43084 | 2 ft | 10 kts | 57° |
| 2026-05-06 14:14 | 51.95542 | 4.43650 | -1 ft | 102 kts | 57° |
| 2026-05-06 14:15 | 51.96088 | 4.45025 | 218 ft | 154 kts | 56° |
| 2026-05-06 14:15 | 51.96570 | 4.46202 | 700 ft | 166 kts | 54° |
| 2026-05-06 14:15 | 51.97238 | 4.47733 | 1379 ft | 177 kts | 52° |
| 2026-05-06 14:15 | 51.98110 | 4.49856 | 2171 ft | 199 kts | 67° |
| 2026-05-06 14:16 | 51.98295 | 4.51817 | 2218 ft | 226 kts | 92° |
| 2026-05-06 14:16 | 51.97957 | 4.53640 | 2117 ft | 227 kts | 117° |
| 2026-05-06 14:16 | 51.96905 | 4.55331 | 2023 ft | 232 kts | 147° |
| 2026-05-06 14:16 | 51.94446 | 4.55923 | 2015 ft | 238 kts | 181° |
| 2026-05-06 14:17 | 51.93462 | 4.55842 | 2011 ft | 240 kts | 182° |
| 2026-05-06 14:17 | 51.91484 | 4.55628 | 2009 ft | 240 kts | 182° |
| 2026-05-06 14:17 | 51.89976 | 4.55453 | 2011 ft | 241 kts | 183° |
| 2026-05-06 14:17 | 51.88018 | 4.54780 | 2005 ft | 243 kts | 209° |
| 2026-05-06 14:18 | 51.86816 | 4.52953 | 2010 ft | 240 kts | 238° |
| 2026-05-06 14:18 | 51.85975 | 4.50768 | 2006 ft | 240 kts | 242° |
| 2026-05-06 14:18 | 51.85694 | 4.49989 | 2009 ft | 240 kts | 242° |
| 2026-05-06 14:18 | 51.84550 | 4.46750 | 2012 ft | 237 kts | 242° |
| 2026-05-06 14:19 | 51.83385 | 4.43402 | 2012 ft | 235 kts | 243° |
| 2026-05-06 14:19 | 51.82774 | 4.41649 | 2006 ft | 234 kts | 243° |
| 2026-05-06 14:19 | 51.81985 | 4.39379 | 2011 ft | 237 kts | 243° |
| 2026-05-06 14:19 | 51.81200 | 4.37122 | 2007 ft | 236 kts | 243° |
| 2026-05-06 14:20 | 51.80552 | 4.35262 | 2005 ft | 237 kts | 243° |
| 2026-05-06 14:20 | 51.79858 | 4.32742 | 1999 ft | 232 kts | 263° |
| 2026-05-06 14:20 | 51.80239 | 4.29556 | 2004 ft | 223 kts | 307° |
| 2026-05-06 14:20 | 51.81443 | 4.27798 | 2013 ft | 217 kts | 330° |
| 2026-05-06 14:21 | 51.82170 | 4.27057 | 2009 ft | 217 kts | 332° |
| 2026-05-06 14:21 | 51.83777 | 4.25508 | 2010 ft | 217 kts | 332° |
| 2026-05-06 14:21 | 51.85260 | 4.24466 | 1999 ft | 215 kts | 354° |
| 2026-05-06 14:21 | 51.86324 | 4.24477 | 2006 ft | 215 kts | 8° |
| 2026-05-06 14:22 | 51.87796 | 4.25343 | 1996 ft | 202 kts | 32° |
| 2026-05-06 14:22 | 51.88890 | 4.27082 | 2003 ft | 172 kts | 54° |
| 2026-05-06 14:22 | 51.89463 | 4.28518 | 2024 ft | 145 kts | 54° |
| 2026-05-06 14:22 | 51.89975 | 4.29786 | 1908 ft | 126 kts | 53° |
| 2026-05-06 14:23 | 51.90448 | 4.30957 | 1767 ft | 123 kts | 53° |
| 2026-05-06 14:23 | 51.90946 | 4.32195 | 1604 ft | 121 kts | 54° |
| 2026-05-06 14:23 | 51.91399 | 4.33320 | 1444 ft | 117 kts | 54° |
| 2026-05-06 14:23 | 51.91878 | 4.34511 | 1279 ft | 120 kts | 54° |
| 2026-05-06 14:24 | 51.92018 | 4.34860 | 1218 ft | 120 kts | 54° |
| 2026-05-06 14:24 | 51.92777 | 4.36753 | 956 ft | 116 kts | 54° |
| 2026-05-06 14:24 | 51.93223 | 4.37856 | 777 ft | 116 kts | 54° |
| 2026-05-06 14:24 | 51.93516 | 4.38586 | 667 ft | 113 kts | 55° |
| 2026-05-06 14:25 | 51.93950 | 4.39665 | 516 ft | 114 kts | 56° |
| 2026-05-06 14:25 | 51.94396 | 4.40779 | 321 ft | 112 kts | 57° |
| 2026-05-06 14:25 | 51.94854 | 4.41932 | 159 ft | 112 kts | 56° |
| 2026-05-06 14:25 | 51.95256 | 4.42936 | 44 ft | 111 kts | 57° |
| 2026-05-06 14:26 | 51.95689 | 4.44025 | 1 ft | 82 kts | 57° |
| 2026-05-06 14:26 | 51.95893 | 4.44531 | -2 ft | 26 kts | 57° |
| 2026-05-06 14:26 | 51.95896 | 4.44679 | 0 ft | 20 kts | 127° |
| 2026-05-06 14:27 | 51.95695 | 4.44534 | 1 ft | 19 kts | 237° |
| 2026-05-06 14:27 | 51.95624 | 4.44356 | 1 ft | 22 kts | 237° |
| 2026-05-06 14:27 | 51.95559 | 4.44197 | 1 ft | 24 kts | 237° |
| 2026-05-06 14:27 | 51.95435 | 4.43882 | 1 ft | 29 kts | 238° |
| 2026-05-06 14:28 | 51.95333 | 4.43626 | 1 ft | 30 kts | 237° |
| 2026-05-06 14:28 | 51.95242 | 4.43514 | 1 ft | 14 kts | 153° |
| 2026-05-06 14:28 | 51.95162 | 4.43484 | 1 ft | 14 kts | 236° |
| 2026-05-06 14:28 | 51.95129 | 4.43402 | 1 ft | 14 kts | 237° |
| 2026-05-06 14:29 | 51.95126 | 4.43310 | 2 ft | 8 kts | 326° |
| 2026-05-06 14:29 | 51.95147 | 4.43288 | 1 ft | 0 kts | 327° |